createdAt,value
2023-03-06T00:00:53.421Z,5.77
2023-03-06T00:03:20.798Z,5.45
2023-03-06T00:05:47.466Z,5.53
2023-03-06T00:08:14.151Z,5.88
2023-03-06T00:10:41.110Z,6.13
2023-03-06T00:13:15.211Z,6.20
2023-03-06T00:15:48.030Z,5.18
2023-03-06T00:18:17.497Z,5.35
2023-03-06T00:20:47.775Z,5.70
2023-03-06T00:23:16.780Z,4.82
2023-03-06T00:25:46.600Z,4.97
2023-03-06T00:28:17.986Z,5.78
2023-03-06T00:30:46.117Z,6.05
2023-03-06T00:33:12.749Z,5.05
2023-03-06T00:35:40.177Z,4.88
2023-03-06T00:38:09.695Z,5.80
2023-03-06T00:40:36.236Z,5.07
2023-03-06T00:43:05.125Z,5.88
2023-03-06T00:45:31.869Z,6.32
2023-03-06T00:47:58.493Z,5.78
2023-03-06T00:50:25.072Z,6.27
2023-03-06T00:52:53.933Z,5.70
2023-03-06T00:55:22.698Z,4.88
2023-03-06T00:57:49.199Z,5.38
2023-03-06T01:00:21.224Z,6.00
2023-03-06T01:02:50.195Z,4.70
2023-03-06T01:05:21.510Z,5.95
2023-03-06T01:07:48.070Z,5.18
2023-03-06T01:10:14.740Z,5.78
2023-03-06T01:12:45.154Z,5.40
2023-03-06T01:15:13.385Z,6.17
2023-03-06T01:17:39.978Z,5.18
2023-03-06T01:20:07.237Z,5.50
2023-03-06T01:22:33.990Z,4.97
2023-03-06T01:25:00.556Z,5.68
2023-03-06T01:27:27.191Z,5.83
2023-03-06T01:29:53.771Z,5.70
2023-03-06T01:32:22.688Z,5.55
2023-03-06T01:34:49.345Z,5.25
2023-03-06T01:37:15.908Z,6.03
2023-03-06T01:39:45.065Z,5.00
2023-03-06T01:42:16.349Z,5.82
2023-03-06T01:45:04.320Z,5.75
2023-03-06T01:47:30.948Z,6.07
2023-03-06T01:50:00.659Z,6.10
2023-03-06T01:52:32.809Z,5.27
2023-03-06T01:55:08.464Z,5.43
2023-03-06T01:57:43.957Z,5.97
2023-03-06T02:00:17.993Z,5.70
2023-03-06T02:02:52.877Z,4.75
2023-03-06T02:05:19.877Z,5.23
2023-03-06T02:07:53.205Z,4.93
2023-03-06T02:10:20.973Z,4.80
2023-03-06T02:12:51.687Z,4.85
2023-03-06T02:15:23.578Z,4.55
2023-03-06T02:17:51.594Z,5.50
2023-03-06T02:20:27.337Z,4.82
2023-03-06T02:23:43.848Z,4.82
2023-03-06T02:26:12.081Z,4.80
2023-03-06T02:28:43.457Z,5.20
2023-03-06T02:31:24.082Z,4.70
2023-03-06T02:34:22.255Z,5.13
2023-03-06T02:36:52.251Z,4.82
2023-03-06T02:39:24.193Z,5.72
2023-03-06T02:41:53.707Z,5.47
2023-03-06T02:44:24.262Z,8.73
2023-03-06T02:46:50.860Z,7.45
2023-03-06T02:49:17.430Z,6.15
2023-03-06T02:51:44.590Z,6.22
2023-03-06T02:54:13.533Z,4.72
2023-03-06T02:56:44.842Z,5.33
2023-03-06T02:59:12.533Z,4.63
2023-03-06T03:01:43.717Z,5.40
2023-03-06T03:04:12.798Z,5.43
2023-03-06T03:06:39.404Z,4.60
2023-03-06T03:09:06.199Z,5.23
2023-03-06T03:11:32.869Z,5.40
2023-03-06T03:13:59.426Z,5.43
2023-03-06T03:16:25.991Z,5.90
2023-03-06T03:18:52.545Z,5.18
2023-03-06T03:21:23.978Z,5.53
2023-03-06T03:23:50.520Z,5.28
2023-03-06T03:26:22.322Z,5.57
2023-03-06T03:28:51.424Z,5.00
2023-03-06T03:31:20.355Z,5.70
2023-03-06T03:33:49.942Z,4.83
2023-03-06T03:36:16.525Z,4.40
2023-03-06T03:38:45.406Z,4.57
2023-03-06T03:41:11.963Z,5.47
2023-03-06T03:43:41.113Z,4.95
2023-03-06T03:46:07.674Z,5.17
2023-03-06T03:48:34.290Z,5.13
2023-03-06T03:51:12.265Z,5.63
2023-03-06T03:53:42.075Z,4.72
2023-03-06T03:56:08.876Z,5.22
2023-03-06T03:58:35.533Z,5.80
2023-03-06T04:01:06.782Z,5.07
2023-03-06T04:03:33.572Z,5.38
2023-03-06T04:06:02.857Z,5.00
2023-03-06T04:08:31.800Z,5.28
2023-03-06T04:11:00.930Z,5.70
2023-03-06T04:13:30.501Z,6.30
2023-03-06T04:15:57.119Z,5.32
2023-03-06T04:18:29.008Z,6.15
2023-03-06T04:20:55.560Z,5.85
2023-03-06T04:23:24.766Z,6.80
2023-03-06T04:25:54.116Z,6.32
2023-03-06T04:28:20.959Z,5.85
2023-03-06T04:30:49.921Z,6.82
2023-03-06T04:33:16.838Z,6.63
2023-03-06T04:35:43.396Z,5.60
2023-03-06T04:38:12.364Z,6.85
2023-03-06T04:40:44.465Z,6.50
2023-03-06T04:43:13.453Z,6.30
2023-03-06T04:45:40.053Z,6.22
2023-03-06T04:48:06.882Z,6.80
2023-03-06T04:50:33.929Z,5.72
2023-03-06T04:53:05.824Z,6.28
2023-03-06T04:55:34.690Z,5.47
2023-03-06T04:58:01.322Z,5.47
2023-03-06T05:00:31.487Z,5.93
2023-03-06T05:03:00.181Z,6.47
2023-03-06T05:05:27.228Z,6.32
2023-03-06T05:07:54.223Z,5.82
2023-03-06T05:10:23.281Z,6.20
2023-03-06T05:12:52.190Z,6.17
2023-03-06T05:15:24.091Z,5.35
2023-03-06T05:17:50.723Z,6.35
2023-03-06T05:20:17.699Z,6.55
2023-03-06T05:22:44.594Z,6.40
2023-03-06T05:25:11.396Z,6.90
2023-03-06T05:27:43.207Z,6.30
2023-03-06T05:30:14.730Z,7.43
2023-03-06T05:32:44.045Z,6.20
2023-03-06T05:35:17.190Z,5.88
2023-03-06T05:37:46.393Z,5.87
2023-03-06T05:40:13.586Z,6.72
2023-03-06T05:42:42.913Z,6.50
2023-03-06T05:45:12.267Z,6.25
2023-03-06T05:47:38.891Z,6.32
2023-03-06T05:50:08.047Z,5.83
2023-03-06T05:52:34.591Z,6.55
2023-03-06T05:55:01.276Z,6.93
2023-03-06T05:57:30.277Z,6.88
2023-03-06T05:59:59.054Z,6.97
2023-03-06T06:02:25.688Z,6.80
2023-03-06T06:04:57.010Z,6.07
2023-03-06T06:07:25.967Z,6.47
2023-03-06T06:09:53.448Z,5.40
2023-03-06T06:12:20.166Z,6.22
2023-03-06T06:14:49.139Z,6.03
2023-03-06T06:17:16.666Z,6.53
2023-03-06T06:19:45.518Z,6.88
2023-03-06T06:22:12.508Z,6.60
2023-03-06T06:24:39.231Z,6.28
2023-03-06T06:27:11.001Z,6.53
2023-03-06T06:29:37.740Z,6.50
2023-03-06T06:32:06.929Z,6.65
2023-03-06T06:34:34.217Z,6.80
2023-03-06T06:37:02.989Z,7.07
2023-03-06T06:39:29.769Z,6.87
2023-03-06T06:42:20.018Z,7.60
2023-03-06T06:44:45.113Z,7.40
2023-03-06T06:47:23.528Z,7.32
2023-03-06T06:49:58.162Z,6.85
2023-03-06T06:52:25.439Z,6.93
2023-03-06T06:54:54.586Z,7.70
2023-03-06T06:57:21.908Z,6.70
2023-03-06T06:59:48.483Z,7.95
2023-03-06T07:02:18.083Z,7.97
2023-03-06T07:05:01.903Z,6.50
2023-03-06T07:07:33.095Z,6.50
2023-03-06T07:09:59.710Z,6.78
2023-03-06T07:12:28.499Z,7.18
2023-03-06T07:14:59.805Z,7.13
2023-03-06T07:17:26.361Z,7.73
2023-03-06T07:19:54.970Z,7.90
2023-03-06T07:22:23.794Z,7.78
2023-03-06T07:24:55.611Z,7.75
2023-03-06T07:27:23.745Z,6.95
2023-03-06T07:29:55.394Z,7.47
2023-03-06T07:32:22.024Z,8.10
2023-03-06T07:34:50.867Z,7.60
2023-03-06T07:37:19.712Z,7.63
2023-03-06T07:39:50.893Z,7.47
2023-03-06T07:42:17.439Z,7.17
2023-03-06T07:44:46.696Z,8.13
2023-03-06T07:47:15.568Z,7.93
2023-03-06T07:49:42.119Z,7.38
2023-03-06T07:52:08.690Z,8.07
2023-03-06T07:54:35.292Z,8.70
2023-03-06T07:57:08.965Z,7.88
2023-03-06T07:59:37.738Z,8.02
2023-03-06T08:02:04.595Z,7.82
2023-03-06T08:04:34.383Z,8.18
2023-03-06T08:07:03.582Z,8.37
2023-03-06T08:09:30.567Z,8.82
2023-03-06T08:11:57.382Z,8.35
2023-03-06T08:14:23.948Z,8.65
2023-03-06T08:16:55.378Z,9.15
2023-03-06T08:19:22.086Z,9.03
2023-03-06T08:21:48.653Z,8.82
2023-03-06T08:24:18.662Z,8.52
2023-03-06T08:26:47.741Z,9.30
2023-03-06T08:29:17.033Z,8.40
2023-03-06T08:31:48.859Z,8.37
2023-03-06T08:34:18.201Z,8.60
2023-03-06T08:36:45.273Z,8.88
2023-03-06T08:39:12.192Z,8.90
2023-03-06T08:41:42.068Z,8.77
2023-03-06T08:44:11.437Z,8.10
2023-03-06T08:46:40.784Z,8.25
2023-03-06T08:49:07.704Z,8.52
2023-03-06T08:51:36.758Z,8.15
2023-03-06T08:54:05.887Z,7.88
2023-03-06T08:56:34.168Z,7.93
2023-03-06T08:59:02.808Z,8.85
2023-03-06T09:01:31.988Z,8.23
2023-03-06T09:04:01.190Z,8.73
2023-03-06T09:06:31.158Z,7.82
2023-03-06T09:08:58.189Z,8.07
2023-03-06T09:11:26.078Z,8.30
2023-03-06T09:13:55.380Z,8.50
2023-03-06T09:16:27.832Z,8.50
2023-03-06T09:18:54.652Z,8.70
2023-03-06T09:21:22.648Z,8.03
2023-03-06T09:23:51.483Z,8.25
2023-03-06T09:26:18.683Z,8.13
2023-03-06T09:28:48.238Z,8.02
2023-03-06T09:31:20.226Z,8.48
2023-03-06T09:33:47.553Z,7.80
2023-03-06T09:36:22.389Z,7.65
2023-03-06T09:38:51.417Z,8.07
2023-03-06T09:41:24.227Z,8.07
2023-03-06T09:43:55.202Z,9.20
2023-03-06T09:46:27.776Z,8.33
2023-03-06T09:49:25.470Z,8.00
2023-03-06T09:52:06.724Z,7.07
2023-03-06T09:54:39.317Z,7.75
2023-03-06T09:57:14.122Z,7.72
2023-03-06T09:59:45.210Z,8.27
2023-03-06T10:02:20.986Z,7.55
2023-03-06T10:04:59.640Z,8.20
2023-03-06T10:07:43.440Z,8.02
2023-03-06T10:10:25.971Z,8.25
2023-03-06T10:13:14.037Z,7.20
2023-03-06T10:15:46.380Z,7.38
2023-03-06T10:18:13.435Z,7.53
2023-03-06T10:20:42.216Z,8.60
2023-03-06T10:23:27.631Z,7.70
2023-03-06T10:26:09.410Z,7.50
2023-03-06T10:28:44.612Z,8.20
2023-03-06T10:31:25.455Z,7.60
2023-03-06T10:34:07.563Z,7.18
2023-03-06T10:36:36.429Z,7.13
2023-03-06T10:39:09.775Z,7.53
2023-03-06T10:41:38.219Z,6.72
2023-03-06T10:44:07.943Z,7.30
2023-03-06T10:46:42.390Z,6.50
2023-03-06T10:49:32.514Z,6.50
2023-03-06T10:52:14.024Z,7.37
2023-03-06T10:54:48.269Z,6.93
2023-03-06T10:57:17.893Z,6.55
2023-03-06T10:59:58.927Z,7.38
2023-03-06T11:02:25.478Z,6.25
2023-03-06T11:04:54.708Z,5.63
2023-03-06T11:07:23.640Z,6.47
2023-03-06T11:09:59.221Z,5.70
2023-03-06T11:12:30.694Z,5.88
2023-03-06T11:15:17.459Z,5.70
2023-03-06T11:18:24.589Z,5.33
2023-03-06T11:20:56.173Z,4.90
2023-03-06T11:23:43.927Z,4.72
2023-03-06T11:26:20.139Z,4.50
2023-03-06T11:29:13.175Z,5.07
2023-03-06T11:31:52.012Z,4.70
2023-03-06T11:34:27.418Z,4.93
2023-03-06T11:37:22.909Z,4.50
2023-03-06T11:40:13.704Z,4.25
2023-03-06T11:43:02.092Z,4.55
2023-03-06T11:45:43.905Z,4.40
2023-03-06T11:48:18.552Z,4.60
2023-03-06T11:50:48.426Z,4.25
2023-03-06T11:53:37.309Z,4.43
2023-03-06T11:56:19.241Z,4.28
2023-03-06T11:59:22.002Z,4.37
2023-03-06T12:02:03.662Z,4.18
2023-03-06T12:05:03.750Z,5.00
2023-03-06T12:07:35.146Z,4.65
2023-03-06T12:10:18.964Z,4.15
2023-03-06T12:12:54.624Z,4.70
2023-03-06T12:15:49.928Z,5.28
2023-03-06T12:18:41.238Z,4.60
2023-03-06T12:21:07.763Z,4.25
2023-03-06T12:23:50.045Z,4.00
2023-03-06T12:26:39.896Z,4.13
2023-03-06T12:29:28.533Z,4.72
2023-03-06T12:32:04.640Z,4.88
2023-03-06T12:34:58.065Z,4.35
2023-03-06T12:37:48.137Z,4.55
2023-03-06T12:40:35.975Z,4.17
2023-03-06T12:43:33.333Z,4.03
2023-03-06T12:46:26.369Z,3.92
2023-03-06T12:49:42.298Z,4.50
2023-03-06T12:52:29.743Z,4.03
2023-03-06T12:54:58.788Z,4.20
2023-03-06T12:57:25.993Z,4.38
2023-03-06T12:59:53.552Z,4.13
2023-03-06T13:02:22.900Z,3.88
2023-03-06T13:05:14.008Z,4.80
2023-03-06T13:07:43.574Z,4.17
2023-03-06T13:10:35.613Z,4.13
2023-03-06T13:13:20.981Z,4.47
2023-03-06T13:16:23.380Z,4.47
2023-03-06T13:18:58.892Z,3.85
2023-03-06T13:21:54.419Z,4.27
2023-03-06T13:24:33.085Z,3.90
2023-03-06T13:27:08.235Z,4.50
2023-03-06T13:29:37.886Z,3.92
2023-03-06T13:32:04.376Z,4.13
2023-03-06T13:34:46.834Z,3.63
2023-03-06T13:37:25.171Z,4.43
2023-03-06T13:39:58.496Z,3.75
2023-03-06T13:42:29.226Z,4.47
2023-03-06T13:44:58.323Z,4.80
2023-03-06T13:47:33.509Z,4.67
2023-03-06T13:50:14.098Z,4.25
2023-03-06T13:53:21.973Z,4.70
2023-03-06T13:56:08.356Z,4.32
2023-03-06T13:58:53.643Z,3.85
2023-03-06T14:01:32.583Z,4.37
2023-03-06T14:04:16.621Z,3.95
2023-03-06T14:07:12.010Z,3.92
2023-03-06T14:09:46.942Z,4.00
2023-03-06T14:12:23.755Z,3.58
2023-03-06T14:14:58.917Z,4.03
2023-03-06T14:17:31.784Z,3.47
2023-03-06T14:20:05.590Z,4.00
2023-03-06T14:22:32.163Z,3.50
2023-03-06T14:25:07.913Z,3.42
2023-03-06T14:27:49.176Z,3.37
2023-03-06T14:30:21.254Z,3.75
2023-03-06T14:32:50.104Z,3.60
2023-03-06T14:35:37.592Z,3.80
2023-03-06T14:38:06.595Z,5.50
2023-03-06T14:40:53.672Z,7.10
2023-03-06T14:43:26.941Z,3.95
2023-03-06T14:46:02.886Z,4.97
2023-03-06T14:48:40.224Z,3.95
2023-03-06T14:51:14.631Z,4.38
2023-03-06T14:53:45.496Z,3.60
2023-03-06T14:56:26.082Z,3.65
2023-03-06T14:58:52.630Z,3.63
2023-03-06T15:01:28.007Z,3.88
2023-03-06T15:03:59.785Z,3.33
2023-03-06T15:06:37.743Z,4.20
2023-03-06T15:09:08.053Z,5.35
2023-03-06T15:11:51.215Z,4.35
2023-03-06T15:14:19.817Z,3.63
2023-03-06T15:16:48.855Z,4.32
2023-03-06T15:19:22.583Z,4.07
2023-03-06T15:21:55.403Z,4.30
2023-03-06T15:24:33.106Z,4.07
2023-03-06T15:27:16.390Z,4.45
2023-03-06T15:29:45.958Z,3.80
2023-03-06T15:32:18.909Z,4.10
2023-03-06T15:35:08.211Z,4.93
2023-03-06T15:37:34.786Z,4.22
2023-03-06T15:40:09.211Z,4.75
2023-03-06T15:42:36.361Z,3.70
2023-03-06T15:45:15.881Z,4.53
2023-03-06T15:47:46.238Z,4.60
2023-03-06T15:50:25.211Z,3.78
2023-03-06T15:52:52.754Z,4.20
2023-03-06T15:55:21.916Z,3.45
2023-03-06T15:58:03.380Z,3.70
2023-03-06T16:00:35.263Z,3.97
2023-03-06T16:03:02.968Z,4.22
2023-03-06T16:05:32.479Z,4.40
2023-03-06T16:08:01.301Z,4.07
2023-03-06T16:10:33.701Z,4.77
2023-03-06T16:13:06.729Z,4.45
2023-03-06T16:15:41.481Z,4.15
2023-03-06T16:18:11.971Z,3.63
2023-03-06T16:20:40.126Z,3.28
2023-03-06T16:23:10.595Z,3.30
2023-03-06T16:25:42.296Z,3.53
2023-03-06T16:28:14.410Z,3.80
2023-03-06T16:30:45.513Z,3.92
2023-03-06T16:33:13.325Z,3.58
2023-03-06T16:35:41.208Z,4.60
2023-03-06T16:38:07.919Z,3.78
2023-03-06T16:40:38.830Z,4.32
2023-03-06T16:43:05.587Z,4.10
2023-03-06T16:45:36.502Z,4.00
2023-03-06T16:48:03.489Z,3.50
2023-03-06T16:50:40.816Z,4.80
2023-03-06T16:53:08.166Z,4.20
2023-03-06T16:55:37.407Z,4.65
2023-03-06T16:58:06.689Z,4.68
2023-03-06T17:00:33.409Z,3.43
2023-03-06T17:03:02.713Z,3.92
2023-03-06T17:05:33.126Z,3.70
2023-03-06T17:07:59.683Z,3.60
2023-03-06T17:10:27.249Z,3.45
2023-03-06T17:12:55.342Z,4.60
2023-03-06T17:15:22.428Z,3.80
2023-03-06T17:17:49.302Z,4.00
2023-03-06T17:20:16.114Z,3.58
2023-03-06T17:22:45.425Z,4.13
2023-03-06T17:25:14.283Z,4.50
2023-03-06T17:27:40.903Z,4.70
2023-03-06T17:30:07.978Z,5.15
2023-03-06T17:32:34.737Z,3.97
2023-03-06T17:35:03.439Z,3.85
2023-03-06T17:37:31.961Z,4.40
2023-03-06T17:40:00.784Z,5.40
2023-03-06T17:42:27.379Z,4.53
2023-03-06T17:44:57.406Z,4.15
2023-03-06T17:47:26.945Z,3.90
2023-03-06T17:49:54.008Z,3.90
2023-03-06T17:52:20.514Z,4.03
2023-03-06T17:54:49.284Z,4.28
2023-03-06T17:57:16.031Z,4.00
2023-03-06T17:59:48.741Z,3.83
2023-03-06T18:02:15.813Z,4.27
2023-03-06T18:04:44.602Z,3.78
2023-03-06T18:07:13.681Z,3.90
2023-03-06T18:09:44.013Z,4.20
2023-03-06T18:12:10.643Z,3.90
2023-03-06T18:14:37.243Z,4.17
2023-03-06T18:17:04.753Z,4.22
2023-03-06T18:19:33.604Z,4.57
2023-03-06T18:22:00.568Z,4.50
2023-03-06T18:24:27.340Z,4.07
2023-03-06T18:26:53.897Z,3.80
2023-03-06T18:29:25.899Z,4.20
2023-03-06T18:31:56.829Z,4.15
2023-03-06T18:34:23.426Z,4.03
2023-03-06T18:36:52.950Z,4.47
2023-03-06T18:39:21.426Z,4.40
2023-03-06T18:41:48.256Z,4.05
2023-03-06T18:44:16.310Z,4.03
2023-03-06T18:46:43.489Z,4.15
2023-03-06T18:49:11.794Z,3.95
2023-03-06T18:51:38.478Z,4.43
2023-03-06T18:54:08.015Z,4.60
2023-03-06T18:56:34.823Z,4.43
2023-03-06T18:59:03.961Z,4.68
2023-03-06T19:01:33.697Z,4.32
2023-03-06T19:04:02.172Z,4.27
2023-03-06T19:06:31.458Z,4.30
2023-03-06T19:09:02.105Z,4.25
2023-03-06T19:11:31.974Z,3.95
2023-03-06T19:14:01.725Z,4.22
2023-03-06T19:16:32.640Z,5.67
2023-03-06T19:18:59.247Z,3.95
2023-03-06T19:21:27.562Z,3.90
2023-03-06T19:23:57.279Z,4.18
2023-03-06T19:26:24.528Z,4.07
2023-03-06T19:28:52.422Z,4.33
2023-03-06T19:31:25.189Z,4.05
2023-03-06T19:33:53.368Z,4.25
2023-03-06T19:36:23.736Z,4.60
2023-03-06T19:38:56.872Z,3.70
2023-03-06T19:41:23.561Z,4.77
2023-03-06T19:43:53.055Z,4.13
2023-03-06T19:46:20.926Z,4.30
2023-03-06T19:48:47.899Z,4.43
2023-03-06T19:51:14.624Z,3.83
2023-03-06T19:53:44.468Z,4.87
2023-03-06T19:56:20.009Z,3.88
2023-03-06T19:58:46.567Z,4.88
2023-03-06T20:01:17.966Z,4.93
2023-03-06T20:03:46.775Z,4.65
2023-03-06T20:06:16.043Z,3.93
2023-03-06T20:08:46.657Z,4.45
2023-03-06T20:11:25.269Z,4.60
2023-03-06T20:13:54.628Z,3.55
2023-03-06T20:16:21.214Z,4.20
2023-03-06T20:18:47.947Z,4.50
2023-03-06T20:21:15.438Z,4.07
2023-03-06T20:23:42.796Z,4.13
2023-03-06T20:26:14.336Z,4.78
2023-03-06T20:28:42.240Z,4.07
2023-03-06T20:31:18.202Z,4.40
2023-03-06T20:33:50.516Z,3.88
2023-03-06T20:36:22.066Z,4.63
2023-03-06T20:38:51.377Z,4.72
2023-03-06T20:41:21.509Z,4.20
2023-03-06T20:43:50.828Z,4.70
2023-03-06T20:46:18.857Z,4.07
2023-03-06T20:48:48.446Z,4.28
2023-03-06T20:51:16.926Z,4.15
2023-03-06T20:53:46.453Z,3.88
2023-03-06T20:56:17.014Z,4.30
2023-03-06T20:58:44.401Z,4.05
2023-03-06T21:01:26.441Z,4.28
2023-03-06T21:03:54.064Z,4.57
2023-03-06T21:06:21.364Z,4.50
2023-03-06T21:08:50.755Z,4.23
2023-03-06T21:11:17.787Z,3.60
2023-03-06T21:13:46.677Z,3.88
2023-03-06T21:16:19.422Z,4.40
2023-03-06T21:18:48.538Z,4.78
2023-03-06T21:21:21.385Z,5.20
2023-03-06T21:23:48.669Z,4.80
2023-03-06T21:26:19.021Z,4.75
2023-03-06T21:28:46.037Z,5.68
2023-03-06T21:31:14.215Z,4.80
2023-03-06T21:33:43.810Z,4.47
2023-03-06T21:36:10.775Z,4.45
2023-03-06T21:38:39.163Z,4.65
2023-03-06T21:41:14.426Z,4.40
2023-03-06T21:43:41.917Z,4.68
2023-03-06T21:46:09.752Z,4.57
2023-03-06T21:48:36.745Z,4.55
2023-03-06T21:51:19.483Z,4.72
2023-03-06T21:53:47.551Z,4.47
2023-03-06T21:56:18.471Z,4.45
2023-03-06T21:58:46.059Z,3.83
2023-03-06T22:01:16.041Z,5.10
2023-03-06T22:03:47.498Z,5.57
2023-03-06T22:06:21.812Z,4.53
2023-03-06T22:08:48.505Z,5.05
2023-03-06T22:11:17.814Z,4.47
2023-03-06T22:13:45.028Z,4.22
2023-03-06T22:16:12.710Z,4.45
2023-03-06T22:18:42.392Z,4.53
2023-03-06T22:21:13.233Z,4.07
2023-03-06T22:23:43.261Z,4.00
2023-03-06T22:26:12.800Z,4.60
2023-03-06T22:28:42.647Z,4.55
2023-03-06T22:31:14.577Z,4.45
2023-03-06T22:33:44.216Z,5.22
2023-03-06T22:36:13.969Z,4.17
2023-03-06T22:38:44.847Z,4.18
2023-03-06T22:41:15.809Z,4.38
2023-03-06T22:43:45.151Z,4.25
2023-03-06T22:46:14.857Z,4.85
2023-03-06T22:48:46.984Z,5.00
2023-03-06T22:51:18.410Z,4.75
2023-03-06T22:53:45.693Z,4.28
2023-03-06T22:56:15.189Z,4.97
2023-03-06T22:58:44.910Z,4.53
2023-03-06T23:01:17.372Z,4.87
2023-03-06T23:03:50.962Z,5.18
2023-03-06T23:06:20.743Z,5.20
2023-03-06T23:08:55.422Z,5.20
2023-03-06T23:11:25.413Z,4.10
2023-03-06T23:13:55.182Z,4.40
2023-03-06T23:16:21.856Z,5.10
2023-03-06T23:18:51.278Z,4.72
2023-03-06T23:21:24.580Z,4.90
2023-03-06T23:23:54.986Z,4.38
2023-03-06T23:26:24.598Z,4.07
2023-03-06T23:28:54.117Z,4.97
2023-03-06T23:31:24.258Z,4.47
2023-03-06T23:33:53.081Z,4.70
2023-03-06T23:36:19.742Z,5.07
2023-03-06T23:38:48.705Z,5.27
2023-03-06T23:41:20.545Z,4.57
2023-03-06T23:43:48.071Z,4.78
2023-03-06T23:46:15.117Z,4.18
2023-03-06T23:48:44.523Z,4.53
2023-03-06T23:51:22.616Z,4.73
2023-03-06T23:53:58.129Z,4.55
2023-03-06T23:56:26.469Z,4.55
2023-03-06T23:58:55.996Z,4.18
